sensor_id;sensor_type;location;lat;lon;timestamp;pressure;altitude;pressure_sealevel;temperature;humidity
61128;BME280;47013;42.664;23.242;2023-02-02T00:01:27;94075.19;;;3.94;51.94
61128;BME280;47013;42.664;23.242;2023-02-02T00:03:53;94081.38;;;3.98;51.99
61128;BME280;47013;42.664;23.242;2023-02-02T00:06:20;94072.88;;;3.93;51.81
61128;BME280;47013;42.664;23.242;2023-02-02T00:08:46;94075.56;;;3.93;51.81
61128;BME280;47013;42.664;23.242;2023-02-02T00:11:11;94070.13;;;3.89;51.88
61128;BME280;47013;42.664;23.242;2023-02-02T00:13:37;94063.53;;;3.83;53.05
61128;BME280;47013;42.664;23.242;2023-02-02T00:18:47;94067.16;;;3.48;53.67
61128;BME280;47013;42.664;23.242;2023-02-02T00:21:12;94064.66;;;3.59;53.82
61128;BME280;47013;42.664;23.242;2023-02-02T00:23:40;94066.16;;;3.57;53.61
61128;BME280;47013;42.664;23.242;2023-02-02T00:26:05;94076.81;;;3.53;54.28
61128;BME280;47013;42.664;23.242;2023-02-02T00:28:31;94077.81;;;3.45;54.31
61128;BME280;47013;42.664;23.242;2023-02-02T00:30:56;94078.72;;;3.52;54.75
61128;BME280;47013;42.664;23.242;2023-02-02T00:33:21;94082.94;;;3.53;55.36
61128;BME280;47013;42.664;23.242;2023-02-02T00:35:47;94079.56;;;3.57;54.54
61128;BME280;47013;42.664;23.242;2023-02-02T00:38:12;94084.84;;;3.53;54.95
61128;BME280;47013;42.664;23.242;2023-02-02T00:40:37;94088.06;;;3.62;55.38
61128;BME280;47013;42.664;23.242;2023-02-02T00:43:02;94084.75;;;3.69;55.51
61128;BME280;47013;42.664;23.242;2023-02-02T00:45:28;94096.97;;;3.66;55.28
61128;BME280;47013;42.664;23.242;2023-02-02T00:47:53;94090.50;;;3.71;56.36
61128;BME280;47013;42.664;23.242;2023-02-02T00:50:19;94087.38;;;3.65;56.22
61128;BME280;47013;42.664;23.242;2023-02-02T00:52:45;94081.22;;;3.65;56.85
61128;BME280;47013;42.664;23.242;2023-02-02T00:55:11;94083.56;;;3.66;56.25
61128;BME280;47013;42.664;23.242;2023-02-02T00:57:37;94077.06;;;3.67;55.44
61128;BME280;47013;42.664;23.242;2023-02-02T01:00:04;94077.84;;;3.68;55.36
61128;BME280;47013;42.664;23.242;2023-02-02T01:02:30;94077.06;;;3.67;55.51
61128;BME280;47013;42.664;23.242;2023-02-02T01:04:56;94067.53;;;3.70;55.44
61128;BME280;47013;42.664;23.242;2023-02-02T01:07:21;94071.97;;;3.62;55.68
61128;BME280;47013;42.664;23.242;2023-02-02T01:09:46;94068.63;;;3.46;56.09
61128;BME280;47013;42.664;23.242;2023-02-02T01:12:12;94061.69;;;3.41;56.37
61128;BME280;47013;42.664;23.242;2023-02-02T01:14:37;94057.44;;;3.40;56.51
61128;BME280;47013;42.664;23.242;2023-02-02T01:17:02;94041.44;;;3.24;57.77
61128;BME280;47013;42.664;23.242;2023-02-02T01:19:29;94053.19;;;2.97;57.83
61128;BME280;47013;42.664;23.242;2023-02-02T01:21:55;94036.25;;;2.89;58.32
61128;BME280;47013;42.664;23.242;2023-02-02T01:24:20;94035.47;;;2.89;59.37
61128;BME280;47013;42.664;23.242;2023-02-02T01:26:45;94040.09;;;2.92;59.59
61128;BME280;47013;42.664;23.242;2023-02-02T01:29:10;94039.75;;;2.93;60.23
61128;BME280;47013;42.664;23.242;2023-02-02T01:31:36;94039.41;;;2.95;59.72
61128;BME280;47013;42.664;23.242;2023-02-02T01:34:01;94034.41;;;2.93;60.75
61128;BME280;47013;42.664;23.242;2023-02-02T01:36:26;94047.63;;;2.86;61.23
61128;BME280;47013;42.664;23.242;2023-02-02T01:38:52;94044.91;;;2.63;62.61
61128;BME280;47013;42.664;23.242;2023-02-02T01:41:18;94044.63;;;2.49;63.35
61128;BME280;47013;42.664;23.242;2023-02-02T01:46:13;94030.53;;;2.52;64.44
61128;BME280;47013;42.664;23.242;2023-02-02T01:48:40;94036.53;;;2.65;63.52
61128;BME280;47013;42.664;23.242;2023-02-02T01:51:07;94028.84;;;2.63;64.18
61128;BME280;47013;42.664;23.242;2023-02-02T01:53:34;94024.75;;;2.70;64.21
61128;BME280;47013;42.664;23.242;2023-02-02T01:56:00;94036.22;;;2.70;64.75
61128;BME280;47013;42.664;23.242;2023-02-02T01:58:29;94021.84;;;2.59;65.29
61128;BME280;47013;42.664;23.242;2023-02-02T02:00:55;94025.31;;;2.59;66.11
61128;BME280;47013;42.664;23.242;2023-02-02T02:03:23;94028.84;;;2.63;65.75
61128;BME280;47013;42.664;23.242;2023-02-02T02:05:58;94014.25;;;2.42;65.71
61128;BME280;47013;42.664;23.242;2023-02-02T02:08:29;94020.09;;;2.47;66.70
61128;BME280;47013;42.664;23.242;2023-02-02T02:10:55;94023.63;;;2.51;66.88
61128;BME280;47013;42.664;23.242;2023-02-02T02:13:21;94024.75;;;2.50;67.37
61128;BME280;47013;42.664;23.242;2023-02-02T02:16:11;94024.75;;;2.50;67.36
61128;BME280;47013;42.664;23.242;2023-02-02T02:34:49;94027.56;;;2.57;66.87
61128;BME280;47013;42.664;23.242;2023-02-02T02:39:44;94017.44;;;2.66;66.84
61128;BME280;47013;42.664;23.242;2023-02-02T02:42:18;94016.84;;;2.57;65.65
61128;BME280;47013;42.664;23.242;2023-02-02T02:44:44;94026.59;;;2.65;64.83
61128;BME280;47013;42.664;23.242;2023-02-02T02:47:11;94017.06;;;2.68;63.72
61128;BME280;47013;42.664;23.242;2023-02-02T02:49:43;94020.25;;;2.74;65.39
61128;BME280;47013;42.664;23.242;2023-02-02T02:52:09;94014.09;;;2.73;65.24
61128;BME280;47013;42.664;23.242;2023-02-02T02:54:35;94019.34;;;2.66;64.87
61128;BME280;47013;42.664;23.242;2023-02-02T03:04:38;94011.31;;;2.66;65.04
61128;BME280;47013;42.664;23.242;2023-02-02T03:07:17;94009.75;;;2.65;64.81
61128;BME280;47013;42.664;23.242;2023-02-02T03:09:45;94004.97;;;2.55;65.72
61128;BME280;47013;42.664;23.242;2023-02-02T03:12:12;94000.47;;;2.40;65.76
61128;BME280;47013;42.664;23.242;2023-02-02T03:14:37;94010.50;;;2.46;65.93
61128;BME280;47013;42.664;23.242;2023-02-02T03:17:03;94009.25;;;2.40;66.81
61128;BME280;47013;42.664;23.242;2023-02-02T03:19:28;94006.88;;;2.35;66.50
61128;BME280;47013;42.664;23.242;2023-02-02T03:21:54;93992.72;;;2.34;67.12
61128;BME280;47013;42.664;23.242;2023-02-02T03:24:19;94004.38;;;2.26;66.56
61128;BME280;47013;42.664;23.242;2023-02-02T03:26:44;94004.38;;;2.26;66.89
61128;BME280;47013;42.664;23.242;2023-02-02T03:29:10;93999.28;;;2.21;66.54
61128;BME280;47013;42.664;23.242;2023-02-02T03:31:35;93997.56;;;2.29;66.28
61128;BME280;47013;42.664;23.242;2023-02-02T03:34:01;94000.28;;;2.32;66.24
61128;BME280;47013;42.664;23.242;2023-02-02T03:36:26;94001.00;;;2.29;66.45
61128;BME280;47013;42.664;23.242;2023-02-02T03:38:52;93993.03;;;2.33;66.16
61128;BME280;47013;42.664;23.242;2023-02-02T03:41:17;94000.41;;;2.36;67.47
61128;BME280;47013;42.664;23.242;2023-02-02T03:43:42;93998.34;;;2.29;66.32
61128;BME280;47013;42.664;23.242;2023-02-02T03:46:07;94005.53;;;2.25;66.46
61128;BME280;47013;42.664;23.242;2023-02-02T03:48:34;94007.41;;;2.25;65.73
61128;BME280;47013;42.664;23.242;2023-02-02T03:50:59;93995.59;;;2.26;66.58
61128;BME280;47013;42.664;23.242;2023-02-02T03:53:24;94004.03;;;2.28;65.90
61128;BME280;47013;42.664;23.242;2023-02-02T03:55:50;94010.31;;;2.35;66.01
61128;BME280;47013;42.664;23.242;2023-02-02T03:58:15;94010.66;;;2.34;66.47
61128;BME280;47013;42.664;23.242;2023-02-02T04:00:41;93996.00;;;2.28;66.02
61128;BME280;47013;42.664;23.242;2023-02-02T04:03:06;94008.31;;;2.32;66.09
61128;BME280;47013;42.664;23.242;2023-02-02T04:05:32;94009.25;;;2.40;66.56
61128;BME280;47013;42.664;23.242;2023-02-02T04:07:57;94023.47;;;2.44;67.36
61128;BME280;47013;42.664;23.242;2023-02-02T04:10:22;94024.34;;;2.48;65.82
61128;BME280;47013;42.664;23.242;2023-02-02T04:12:47;94023.56;;;2.48;65.33
61128;BME280;47013;42.664;23.242;2023-02-02T04:15:13;94026.72;;;2.53;65.93
61128;BME280;47013;42.664;23.242;2023-02-02T04:17:38;94031.44;;;2.60;66.03
61128;BME280;47013;42.664;23.242;2023-02-02T04:20:03;94031.44;;;2.60;65.30
61128;BME280;47013;42.664;23.242;2023-02-02T04:22:29;94036.78;;;2.60;64.89
61128;BME280;47013;42.664;23.242;2023-02-02T04:24:54;94036.78;;;2.60;64.45
61128;BME280;47013;42.664;23.242;2023-02-02T04:27:20;94043.00;;;2.64;64.51
61128;BME280;47013;42.664;23.242;2023-02-02T04:29:45;94034.63;;;2.65;64.17
61128;BME280;47013;42.664;23.242;2023-02-02T04:32:10;94037.41;;;2.73;63.68
61128;BME280;47013;42.664;23.242;2023-02-02T04:34:35;94024.41;;;2.71;63.04
61128;BME280;47013;42.664;23.242;2023-02-02T04:37:01;94030.16;;;2.73;62.98
61128;BME280;47013;42.664;23.242;2023-02-02T04:39:26;94032.72;;;2.66;62.25
61128;BME280;47013;42.664;23.242;2023-02-02T04:41:51;94033.44;;;2.63;62.05
61128;BME280;47013;42.664;23.242;2023-02-02T04:44:17;94047.28;;;2.69;61.99
61128;BME280;47013;42.664;23.242;2023-02-02T04:46:42;94038.50;;;2.68;62.53
61128;BME280;47013;42.664;23.242;2023-02-02T04:49:08;94041.88;;;2.65;62.37
61128;BME280;47013;42.664;23.242;2023-02-02T04:51:34;94050.25;;;2.63;61.59
61128;BME280;47013;42.664;23.242;2023-02-02T04:53:59;94032.16;;;2.57;61.79
61128;BME280;47013;42.664;23.242;2023-02-02T04:56:25;94039.97;;;2.65;62.02
61128;BME280;47013;42.664;23.242;2023-02-02T04:58:52;94037.44;;;2.53;61.59
61128;BME280;47013;42.664;23.242;2023-02-02T05:01:18;94038.69;;;2.59;61.45
61128;BME280;47013;42.664;23.242;2023-02-02T05:03:45;94033.00;;;2.61;61.20
61128;BME280;47013;42.664;23.242;2023-02-02T05:06:10;94033.69;;;2.58;61.69
61128;BME280;47013;42.664;23.242;2023-02-02T05:08:36;94048.97;;;2.57;61.47
61128;BME280;47013;42.664;23.242;2023-02-02T05:11:05;94044.75;;;2.56;61.85
61128;BME280;47013;42.664;23.242;2023-02-02T05:13:30;94041.50;;;2.47;61.90
61128;BME280;47013;42.664;23.242;2023-02-02T05:15:56;94051.78;;;2.45;62.44
61128;BME280;47013;42.664;23.242;2023-02-02T05:18:21;94047.84;;;2.39;61.98
61128;BME280;47013;42.664;23.242;2023-02-02T05:20:47;94049.09;;;2.26;61.75
61128;BME280;47013;42.664;23.242;2023-02-02T05:23:12;94027.69;;;2.26;62.60
61128;BME280;47013;42.664;23.242;2023-02-02T05:25:37;94021.91;;;2.24;62.87
61128;BME280;47013;42.664;23.242;2023-02-02T05:28:02;94024.00;;;2.15;62.60
61128;BME280;47013;42.664;23.242;2023-02-02T05:30:28;94034.34;;;2.16;62.20
61128;BME280;47013;42.664;23.242;2023-02-02T05:32:53;94042.44;;;2.20;61.82
61128;BME280;47013;42.664;23.242;2023-02-02T05:35:18;94040.91;;;2.19;60.92
61128;BME280;47013;42.664;23.242;2023-02-02T05:37:43;94044.22;;;2.31;60.15
61128;BME280;47013;42.664;23.242;2023-02-02T05:40:09;94034.47;;;2.39;60.83
61128;BME280;47013;42.664;23.242;2023-02-02T05:42:34;94034.53;;;2.43;60.98
61128;BME280;47013;42.664;23.242;2023-02-02T05:44:59;94036.72;;;2.37;60.63
61128;BME280;47013;42.664;23.242;2023-02-02T05:47:25;94029.47;;;2.38;60.50
61128;BME280;47013;42.664;23.242;2023-02-02T05:49:50;94029.88;;;2.40;60.09
61128;BME280;47013;42.664;23.242;2023-02-02T05:52:16;94037.50;;;2.38;60.02
61128;BME280;47013;42.664;23.242;2023-02-02T05:54:42;94038.19;;;2.34;59.45
61128;BME280;47013;42.664;23.242;2023-02-02T05:57:08;94028.13;;;2.47;58.85
61128;BME280;47013;42.664;23.242;2023-02-02T05:59:33;94010.88;;;2.45;59.06
61128;BME280;47013;42.664;23.242;2023-02-02T06:01:58;94029.47;;;2.57;58.15
61128;BME280;47013;42.664;23.242;2023-02-02T06:04:24;94046.88;;;2.66;58.27
61128;BME280;47013;42.664;23.242;2023-02-02T06:06:49;94048.38;;;2.64;57.47
61128;BME280;47013;42.664;23.242;2023-02-02T06:09:14;94038.56;;;2.72;58.00
61128;BME280;47013;42.664;23.242;2023-02-02T06:11:41;94040.09;;;2.73;58.39
61128;BME280;47013;42.664;23.242;2023-02-02T06:14:07;94045.53;;;2.76;58.32
61128;BME280;47013;42.664;23.242;2023-02-02T06:16:32;94047.50;;;2.79;58.82
61128;BME280;47013;42.664;23.242;2023-02-02T06:18:57;94047.22;;;2.84;57.76
61128;BME280;47013;42.664;23.242;2023-02-02T06:21:23;94050.03;;;2.91;57.83
61128;BME280;47013;42.664;23.242;2023-02-02T06:23:49;94057.78;;;2.96;57.55
61128;BME280;47013;42.664;23.242;2023-02-02T06:26:14;94063.91;;;2.97;57.64
61128;BME280;47013;42.664;23.242;2023-02-02T06:28:40;94061.38;;;3.04;56.74
61128;BME280;47013;42.664;23.242;2023-02-02T06:31:07;94064.94;;;3.12;56.75
61128;BME280;47013;42.664;23.242;2023-02-02T06:33:33;94076.94;;;3.18;57.01
61128;BME280;47013;42.664;23.242;2023-02-02T06:35:59;94080.03;;;3.20;56.42
61128;BME280;47013;42.664;23.242;2023-02-02T06:38:25;94078.03;;;3.13;56.63
61128;BME280;47013;42.664;23.242;2023-02-02T06:40:50;94086.06;;;3.13;56.19
61128;BME280;47013;42.664;23.242;2023-02-02T06:43:15;94095.69;;;3.18;56.40
61128;BME280;47013;42.664;23.242;2023-02-02T06:45:40;94089.28;;;3.22;56.15
61128;BME280;47013;42.664;23.242;2023-02-02T06:48:06;94082.09;;;3.27;56.81
61128;BME280;47013;42.664;23.242;2023-02-02T06:50:35;94069.94;;;3.33;56.53
61128;BME280;47013;42.664;23.242;2023-02-02T06:53:00;94091.53;;;3.40;56.07
61128;BME280;47013;42.664;23.242;2023-02-02T06:55:25;94088.94;;;3.47;55.87
61128;BME280;47013;42.664;23.242;2023-02-02T06:57:57;94092.41;;;3.47;56.17
61128;BME280;47013;42.664;23.242;2023-02-02T07:00:23;94107.94;;;3.80;58.27
61128;BME280;47013;42.664;23.242;2023-02-02T07:02:48;94104.06;;;3.78;56.03
61128;BME280;47013;42.664;23.242;2023-02-02T07:05:13;94103.50;;;3.69;55.29
61128;BME280;47013;42.664;23.242;2023-02-02T07:07:38;94097.19;;;3.58;55.69
61128;BME280;47013;42.664;23.242;2023-02-02T07:10:04;94098.78;;;3.62;55.54
61128;BME280;47013;42.664;23.242;2023-02-02T07:12:29;94100.88;;;3.72;56.09
61128;BME280;47013;42.664;23.242;2023-02-02T07:14:54;94104.34;;;3.73;55.37
61128;BME280;47013;42.664;23.242;2023-02-02T07:17:20;94097.47;;;3.75;54.88
61128;BME280;47013;42.664;23.242;2023-02-02T07:19:45;94103.94;;;3.71;55.03
61128;BME280;47013;42.664;23.242;2023-02-02T07:22:10;94103.25;;;3.77;55.36
61128;BME280;47013;42.664;23.242;2023-02-02T07:24:36;94119.06;;;3.82;54.72
61128;BME280;47013;42.664;23.242;2023-02-02T07:27:04;94108.44;;;3.90;55.43
61128;BME280;47013;42.664;23.242;2023-02-02T07:29:29;94121.56;;;3.95;54.83
61128;BME280;47013;42.664;23.242;2023-02-02T07:31:54;94112.19;;;4.08;55.12
61128;BME280;47013;42.664;23.242;2023-02-02T07:34:20;94103.19;;;4.20;54.09
61128;BME280;47013;42.664;23.242;2023-02-02T07:36:45;94109.06;;;4.29;53.95
61128;BME280;47013;42.664;23.242;2023-02-02T07:39:10;94116.94;;;4.97;82.80
61128;BME280;47013;42.664;23.242;2023-02-02T07:41:35;94115.69;;;5.21;61.42
61128;BME280;47013;42.664;23.242;2023-02-02T07:44:01;94108.25;;;4.81;52.86
61128;BME280;47013;42.664;23.242;2023-02-02T07:46:27;94097.97;;;4.87;52.56
61128;BME280;47013;42.664;23.242;2023-02-02T07:48:53;94101.00;;;6.34;56.66
61128;BME280;47013;42.664;23.242;2023-02-02T07:51:19;94080.19;;;5.42;51.95
61128;BME280;47013;42.664;23.242;2023-02-02T07:53:45;94079.81;;;5.44;51.07
61128;BME280;47013;42.664;23.242;2023-02-02T07:56:15;94068.41;;;5.20;52.13
61128;BME280;47013;42.664;23.242;2023-02-02T07:58:40;94075.38;;;5.21;52.33
61128;BME280;47013;42.664;23.242;2023-02-02T08:01:07;94072.06;;;5.35;52.47
61128;BME280;47013;42.664;23.242;2023-02-02T08:03:33;94070.56;;;5.41;51.39
61128;BME280;47013;42.664;23.242;2023-02-02T08:05:58;94073.09;;;5.64;51.51
61128;BME280;47013;42.664;23.242;2023-02-02T08:08:24;94077.72;;;5.63;51.31
61128;BME280;47013;42.664;23.242;2023-02-02T08:10:50;94061.94;;;6.03;51.13
61128;BME280;47013;42.664;23.242;2023-02-02T08:13:15;94065.06;;;6.12;50.49
61128;BME280;47013;42.664;23.242;2023-02-02T08:15:40;94060.28;;;6.42;50.25
61128;BME280;47013;42.664;23.242;2023-02-02T08:18:05;94049.53;;;5.91;49.75
61128;BME280;47013;42.664;23.242;2023-02-02T08:20:31;94041.72;;;5.79;50.83
61128;BME280;47013;42.664;23.242;2023-02-02T08:22:56;94041.34;;;5.80;50.46
61128;BME280;47013;42.664;23.242;2023-02-02T08:25:21;94049.72;;;5.31;51.74
61128;BME280;47013;42.664;23.242;2023-02-02T08:27:47;94048.66;;;5.39;52.15
61128;BME280;47013;42.664;23.242;2023-02-02T08:30:12;94050.41;;;5.21;53.46
61128;BME280;47013;42.664;23.242;2023-02-02T08:32:37;94044.66;;;5.22;53.20
61128;BME280;47013;42.664;23.242;2023-02-02T08:35:03;94038.41;;;5.15;53.91
61128;BME280;47013;42.664;23.242;2023-02-02T08:37:29;94019.78;;;5.32;54.46
61128;BME280;47013;42.664;23.242;2023-02-02T08:39:54;94035.34;;;5.53;53.55
61128;BME280;47013;42.664;23.242;2023-02-02T08:42:19;94034.69;;;5.63;53.64
61128;BME280;47013;42.664;23.242;2023-02-02T08:44:44;94022.47;;;5.73;53.27
61128;BME280;47013;42.664;23.242;2023-02-02T08:47:10;94018.56;;;5.71;52.45
61128;BME280;47013;42.664;23.242;2023-02-02T08:49:35;94017.03;;;5.70;53.08
61128;BME280;47013;42.664;23.242;2023-02-02T08:52:00;94020.47;;;5.67;54.10
61128;BME280;47013;42.664;23.242;2023-02-02T08:54:25;94012.72;;;5.58;53.82
61128;BME280;47013;42.664;23.242;2023-02-02T08:56:51;94005.59;;;5.83;53.66
61128;BME280;47013;42.664;23.242;2023-02-02T08:59:16;94009.66;;;6.04;53.24
61128;BME280;47013;42.664;23.242;2023-02-02T09:01:41;93999.09;;;5.84;53.14
61128;BME280;47013;42.664;23.242;2023-02-02T09:04:09;93999.34;;;5.65;54.44
61128;BME280;47013;42.664;23.242;2023-02-02T09:06:38;93995.19;;;5.75;55.70
61128;BME280;47013;42.664;23.242;2023-02-02T09:09:04;94000.47;;;5.60;54.91
61128;BME280;47013;42.664;23.242;2023-02-02T09:11:30;94003.22;;;5.71;55.47
61128;BME280;47013;42.664;23.242;2023-02-02T09:13:56;94006.44;;;5.87;54.60
61128;BME280;47013;42.664;23.242;2023-02-02T09:16:22;94007.72;;;6.01;53.66
61128;BME280;47013;42.664;23.242;2023-02-02T09:18:47;94008.78;;;5.93;53.80
61128;BME280;47013;42.664;23.242;2023-02-02T09:21:14;93999.84;;;5.85;53.76
61128;BME280;47013;42.664;23.242;2023-02-02T09:23:40;93997.63;;;5.90;54.22
61128;BME280;47013;42.664;23.242;2023-02-02T09:28:35;94000.81;;;6.03;53.61
61128;BME280;47013;42.664;23.242;2023-02-02T09:31:01;93999.28;;;6.06;52.89
61128;BME280;47013;42.664;23.242;2023-02-02T09:33:26;93996.50;;;5.91;53.79
61128;BME280;47013;42.664;23.242;2023-02-02T09:35:51;93993.03;;;5.91;53.73
61128;BME280;47013;42.664;23.242;2023-02-02T09:38:17;93996.75;;;5.79;53.99
61128;BME280;47013;42.664;23.242;2023-02-02T09:40:42;93982.34;;;6.02;53.81
61128;BME280;47013;42.664;23.242;2023-02-02T09:45:46;93984.66;;;6.07;52.45
61128;BME280;47013;42.664;23.242;2023-02-02T09:48:41;93978.13;;;6.08;52.62
61128;BME280;47013;42.664;23.242;2023-02-02T09:51:02;93991.69;;;6.22;51.86
61128;BME280;47013;42.664;23.242;2023-02-02T09:53:38;93973.66;;;6.30;51.75
61128;BME280;47013;42.664;23.242;2023-02-02T09:56:06;93973.97;;;6.21;51.30
61128;BME280;47013;42.664;23.242;2023-02-02T09:58:47;93968.31;;;6.40;52.04
61128;BME280;47013;42.664;23.242;2023-02-02T10:01:20;93968.72;;;6.39;51.42
61128;BME280;47013;42.664;23.242;2023-02-02T10:09:01;93967.00;;;7.00;52.24
61128;BME280;47013;42.664;23.242;2023-02-02T10:11:30;93969.72;;;7.10;50.63
61128;BME280;47013;42.664;23.242;2023-02-02T10:14:01;93949.66;;;7.01;50.31
61128;BME280;47013;42.664;23.242;2023-02-02T10:16:29;93942.72;;;6.96;50.98
61128;BME280;47013;42.664;23.242;2023-02-02T10:19:08;93949.56;;;6.65;49.75
61128;BME280;47013;42.664;23.242;2023-02-02T10:21:39;93952.72;;;6.85;50.28
61128;BME280;47013;42.664;23.242;2023-02-02T10:24:28;93949.75;;;7.44;49.10
61128;BME280;47013;42.664;23.242;2023-02-02T10:26:54;93948.97;;;7.86;48.05
61128;BME280;47013;42.664;23.242;2023-02-02T10:34:27;93955.81;;;8.40;44.92
61128;BME280;47013;42.664;23.242;2023-02-02T10:44:23;93916.00;;;8.62;44.40
61128;BME280;47013;42.664;23.242;2023-02-02T10:46:52;93903.75;;;8.36;44.35
61128;BME280;47013;42.664;23.242;2023-02-02T10:51:53;93900.59;;;8.45;45.15
61128;BME280;47013;42.664;23.242;2023-02-02T10:54:43;93883.72;;;8.16;44.74
61128;BME280;47013;42.664;23.242;2023-02-02T10:57:05;93883.97;;;8.57;44.54
61128;BME280;47013;42.664;23.242;2023-02-02T10:59:32;93868.09;;;9.29;43.78
61128;BME280;47013;42.664;23.242;2023-02-02T11:02:00;93863.34;;;9.40;42.09
61128;BME280;47013;42.664;23.242;2023-02-02T11:04:25;93872.94;;;9.48;41.74
61128;BME280;47013;42.664;23.242;2023-02-02T11:07:11;93879.94;;;9.90;41.04
61128;BME280;47013;42.664;23.242;2023-02-02T11:09:44;93876.69;;;10.02;40.57
61128;BME280;47013;42.664;23.242;2023-02-02T11:12:22;93874.00;;;9.61;40.60
61128;BME280;47013;42.664;23.242;2023-02-02T11:14:58;93877.78;;;10.09;40.07
61128;BME280;47013;42.664;23.242;2023-02-02T11:17:26;93860.59;;;10.26;39.76
61128;BME280;47013;42.664;23.242;2023-02-02T11:19:51;93869.53;;;9.37;41.30
61128;BME280;47013;42.664;23.242;2023-02-02T11:22:37;93852.44;;;9.51;40.32
61128;BME280;47013;42.664;23.242;2023-02-02T11:27:38;93851.81;;;9.32;40.81
61128;BME280;47013;42.664;23.242;2023-02-02T11:32:47;93838.44;;;9.59;40.08
61128;BME280;47013;42.664;23.242;2023-02-02T11:35:19;93840.31;;;9.62;39.70
61128;BME280;47013;42.664;23.242;2023-02-02T11:37:52;93834.47;;;9.26;40.44
61128;BME280;47013;42.664;23.242;2023-02-02T11:42:53;93820.69;;;8.51;42.44
61128;BME280;47013;42.664;23.242;2023-02-02T11:45:24;93833.34;;;8.65;42.34
61128;BME280;47013;42.664;23.242;2023-02-02T11:47:51;93833.06;;;8.45;43.17
61128;BME280;47013;42.664;23.242;2023-02-02T11:50:17;93843.59;;;8.95;42.31
61128;BME280;47013;42.664;23.242;2023-02-02T11:52:44;93850.38;;;9.17;41.52
61128;BME280;47013;42.664;23.242;2023-02-02T11:55:15;93829.63;;;9.52;41.21
61128;BME280;47013;42.664;23.242;2023-02-02T11:57:41;93819.81;;;10.02;40.96
61128;BME280;47013;42.664;23.242;2023-02-02T12:00:26;93825.88;;;9.76;39.96
61128;BME280;47013;42.664;23.242;2023-02-02T12:02:52;93824.66;;;9.43;41.60
61128;BME280;47013;42.664;23.242;2023-02-02T12:07:43;93828.00;;;9.13;41.71
61128;BME280;47013;42.664;23.242;2023-02-02T12:10:13;93825.47;;;9.36;42.14
61128;BME280;47013;42.664;23.242;2023-02-02T12:17:41;93824.44;;;10.02;40.45
61128;BME280;47013;42.664;23.242;2023-02-02T12:22:44;93834.16;;;9.99;38.26
61128;BME280;47013;42.664;23.242;2023-02-02T12:36:02;93844.66;;;9.08;37.64
61128;BME280;47013;42.664;23.242;2023-02-02T12:45:03;93841.91;;;8.52;39.29
61128;BME280;47013;42.664;23.242;2023-02-02T12:47:03;93837.75;;;8.37;39.85
61128;BME280;47013;42.664;23.242;2023-02-02T12:58:08;93830.56;;;7.88;41.64
61128;BME280;47013;42.664;23.242;2023-02-02T13:00:10;93823.66;;;7.76;41.31
61128;BME280;47013;42.664;23.242;2023-02-02T13:05:24;93836.41;;;7.61;42.55
61128;BME280;47013;42.664;23.242;2023-02-02T13:07:55;93827.94;;;7.59;41.92
61128;BME280;47013;42.664;23.242;2023-02-02T13:12:58;93844.53;;;7.58;41.18
61128;BME280;47013;42.664;23.242;2023-02-02T13:15:30;93836.81;;;7.49;41.29
61128;BME280;47013;42.664;23.242;2023-02-02T13:17:58;93840.28;;;7.46;41.89
61128;BME280;47013;42.664;23.242;2023-02-02T13:23:01;93836.84;;;7.35;41.22
61128;BME280;47013;42.664;23.242;2023-02-02T13:25:34;93827.97;;;7.34;45.26
61128;BME280;47013;42.664;23.242;2023-02-02T13:27:59;93838.38;;;7.25;41.67
61128;BME280;47013;42.664;23.242;2023-02-02T13:30:27;93833.38;;;7.24;41.80
61128;BME280;47013;42.664;23.242;2023-02-02T13:32:56;93826.84;;;7.18;42.42
61128;BME280;47013;42.664;23.242;2023-02-02T13:35:24;93827.97;;;7.13;42.51
61128;BME280;47013;42.664;23.242;2023-02-02T13:37:56;93822.59;;;7.09;43.64
61128;BME280;47013;42.664;23.242;2023-02-02T13:40:35;93822.97;;;7.01;43.54
61128;BME280;47013;42.664;23.242;2023-02-02T13:50:33;93832.63;;;7.05;44.41
61128;BME280;47013;42.664;23.242;2023-02-02T14:00:39;93823.34;;;6.99;52.24
61128;BME280;47013;42.664;23.242;2023-02-02T14:03:17;93817.19;;;6.85;54.58
61128;BME280;47013;42.664;23.242;2023-02-02T14:06:00;93823.31;;;6.64;55.63
61128;BME280;47013;42.664;23.242;2023-02-02T14:08:26;93820.63;;;6.57;56.70
61128;BME280;47013;42.664;23.242;2023-02-02T14:13:19;93808.44;;;5.83;59.78
61128;BME280;47013;42.664;23.242;2023-02-02T14:16:06;93806.84;;;5.71;60.56
61128;BME280;47013;42.664;23.242;2023-02-02T14:21:24;93813.69;;;5.58;61.67
61128;BME280;47013;42.664;23.242;2023-02-02T14:23:58;93813.56;;;5.37;61.66
61128;BME280;47013;42.664;23.242;2023-02-02T14:26:41;93828.53;;;5.34;62.46
61128;BME280;47013;42.664;23.242;2023-02-02T14:31:53;93844.34;;;5.46;63.25
61128;BME280;47013;42.664;23.242;2023-02-02T14:39:50;93875.16;;;5.04;67.25
61128;BME280;47013;42.664;23.242;2023-02-02T14:48:00;93941.78;;;4.88;76.61
61128;BME280;47013;42.664;23.242;2023-02-02T14:50:30;93960.56;;;4.85;79.45
61128;BME280;47013;42.664;23.242;2023-02-02T14:53:01;93981.47;;;4.68;82.57
61128;BME280;47013;42.664;23.242;2023-02-02T14:55:27;93997.84;;;4.56;84.36
61128;BME280;47013;42.664;23.242;2023-02-02T14:57:57;93996.84;;;4.38;86.37
61128;BME280;47013;42.664;23.242;2023-02-02T15:00:25;94008.97;;;4.28;87.47
61128;BME280;47013;42.664;23.242;2023-02-02T15:02:52;94025.63;;;4.11;89.01
61128;BME280;47013;42.664;23.242;2023-02-02T15:07:50;94038.16;;;3.54;91.10
61128;BME280;47013;42.664;23.242;2023-02-02T15:10:54;94041.22;;;3.33;93.16
61128;BME280;47013;42.664;23.242;2023-02-02T15:13:02;94050.78;;;3.11;93.90
61128;BME280;47013;42.664;23.242;2023-02-02T15:15:29;94065.34;;;2.91;95.62
61128;BME280;47013;42.664;23.242;2023-02-02T15:20:40;94084.72;;;2.65;97.57
61128;BME280;47013;42.664;23.242;2023-02-02T15:25:47;94091.31;;;2.17;100.00
61128;BME280;47013;42.664;23.242;2023-02-02T15:28:18;94109.59;;;2.15;100.00
61128;BME280;47013;42.664;23.242;2023-02-02T15:30:47;94100.81;;;1.98;100.00